createdAt,value
2023-03-01T00:00:26.184Z,24.58
2023-03-01T00:03:12.269Z,18.80
2023-03-01T00:05:59.258Z,22.63
2023-03-01T00:08:44.965Z,17.45
2023-03-01T00:11:32.549Z,19.23
2023-03-01T00:14:18.535Z,24.25
2023-03-01T00:17:05.746Z,21.60
2023-03-01T00:19:51.703Z,17.83
2023-03-01T00:22:38.206Z,25.20
2023-03-01T00:25:24.014Z,20.88
2023-03-01T00:28:09.806Z,16.77
2023-03-01T00:30:55.873Z,17.88
2023-03-01T00:33:42.034Z,15.55
2023-03-01T00:36:30.979Z,19.20
2023-03-01T00:39:17.108Z,20.40
2023-03-01T00:42:03.946Z,18.83
2023-03-01T00:44:49.991Z,13.88
2023-03-01T00:47:35.875Z,17.45
2023-03-01T00:50:21.833Z,17.65
2023-03-01T00:53:07.841Z,16.40
2023-03-01T00:55:53.505Z,15.82
2023-03-01T00:58:39.622Z,20.65
2023-03-01T01:01:32.752Z,13.88
2023-03-01T01:04:18.475Z,16.10
2023-03-01T01:07:04.395Z,16.95
2023-03-01T01:09:50.219Z,15.20
2023-03-01T01:12:38.525Z,16.40
2023-03-01T01:15:24.161Z,18.58
2023-03-01T01:18:10.153Z,18.98
2023-03-01T01:20:56.152Z,13.57
2023-03-01T01:23:43.839Z,16.75
2023-03-01T01:26:32.510Z,20.42
2023-03-01T01:29:18.841Z,12.90
2023-03-01T01:32:05.033Z,11.85
2023-03-01T01:34:50.943Z,11.68
2023-03-01T01:37:37.118Z,13.75
2023-03-01T01:40:23.025Z,13.98
2023-03-01T01:43:18.517Z,16.25
2023-03-01T01:46:34.021Z,13.15
2023-03-01T01:49:20.236Z,10.80
2023-03-01T01:52:41.571Z,11.18
2023-03-01T01:55:28.687Z,14.00
2023-03-01T01:58:17.067Z,13.98
2023-03-01T02:01:03.877Z,10.70
2023-03-01T02:03:50.484Z,13.13
2023-03-01T02:06:43.303Z,13.25
2023-03-01T02:09:29.291Z,18.17
2023-03-01T02:12:19.012Z,18.40
2023-03-01T02:15:05.469Z,13.13
2023-03-01T02:17:51.843Z,11.95
2023-03-01T02:21:31.325Z,9.52
2023-03-01T02:24:29.082Z,15.00
2023-03-01T02:27:18.831Z,14.13
2023-03-01T02:30:04.920Z,14.07
2023-03-01T02:32:52.565Z,11.90
2023-03-01T02:35:39.892Z,17.83
2023-03-01T02:38:25.915Z,17.48
2023-03-01T02:41:17.469Z,12.48
2023-03-01T02:44:04.528Z,21.02
2023-03-01T02:46:53.102Z,16.77
2023-03-01T02:49:39.765Z,17.33
2023-03-01T02:52:29.618Z,11.07
2023-03-01T02:55:17.500Z,11.15
2023-03-01T02:58:04.719Z,16.63
2023-03-01T03:00:52.680Z,13.63
2023-03-01T03:03:38.815Z,12.57
2023-03-01T03:06:25.240Z,14.93
2023-03-01T03:09:11.507Z,10.20
2023-03-01T03:11:57.625Z,16.60
2023-03-01T03:14:44.774Z,10.93
2023-03-01T03:17:30.619Z,14.85
2023-03-01T03:20:21.584Z,15.25
2023-03-01T03:23:07.704Z,16.25
2023-03-01T03:25:53.392Z,18.25
2023-03-01T03:28:40.974Z,16.40
2023-03-01T03:31:27.345Z,17.98
2023-03-01T03:34:19.113Z,15.48
2023-03-01T03:37:25.263Z,13.60
2023-03-01T03:40:16.535Z,14.25
2023-03-01T03:43:06.735Z,9.77
2023-03-01T03:45:52.886Z,17.58
2023-03-01T03:48:44.903Z,13.75
2023-03-01T03:51:30.892Z,13.45
2023-03-01T03:54:16.706Z,14.55
2023-03-01T03:57:02.757Z,11.98
2023-03-01T03:59:48.437Z,13.25
2023-03-01T04:02:34.349Z,16.95
2023-03-01T04:05:20.359Z,18.60
2023-03-01T04:08:09.799Z,18.48
2023-03-01T04:11:23.571Z,16.88
2023-03-01T04:14:09.360Z,14.85
2023-03-01T04:16:55.159Z,16.65
2023-03-01T04:19:40.924Z,23.10
2023-03-01T04:22:30.630Z,16.80
2023-03-01T04:25:16.474Z,16.92
2023-03-01T04:28:02.163Z,18.10
2023-03-01T04:30:49.195Z,22.10
2023-03-01T04:33:34.828Z,18.98
2023-03-01T04:36:23.060Z,20.67
2023-03-01T04:39:13.320Z,15.38
2023-03-01T04:41:59.794Z,17.00
2023-03-01T04:44:46.128Z,12.02
2023-03-01T04:47:32.323Z,11.82
2023-03-01T04:50:21.294Z,17.60
2023-03-01T04:53:07.248Z,17.70
2023-03-01T04:55:52.995Z,12.30
2023-03-01T04:58:39.140Z,17.88
2023-03-01T05:01:24.743Z,19.70
2023-03-01T05:04:14.499Z,13.13
2023-03-01T05:07:00.424Z,9.15
2023-03-01T05:09:48.596Z,11.15
2023-03-01T05:12:38.478Z,22.13
2023-03-01T05:15:28.941Z,11.70
2023-03-01T05:18:15.209Z,18.73
2023-03-01T05:21:13.656Z,17.13
2023-03-01T05:23:59.622Z,25.30
2023-03-01T05:26:46.040Z,15.65
2023-03-01T05:29:32.561Z,24.80
2023-03-01T05:32:18.676Z,17.42
2023-03-01T05:35:05.149Z,17.73
2023-03-01T05:37:51.300Z,33.10
2023-03-01T05:40:36.974Z,12.75
2023-03-01T05:43:22.725Z,14.80
2023-03-01T05:46:12.323Z,16.83
2023-03-01T05:48:58.163Z,24.65
2023-03-01T05:51:48.336Z,17.40
2023-03-01T05:54:34.457Z,19.63
2023-03-01T05:57:21.284Z,33.25
2023-03-01T06:00:09.558Z,11.50
2023-03-01T06:02:59.165Z,23.60
2023-03-01T06:05:45.541Z,24.00
2023-03-01T06:08:31.621Z,16.75
2023-03-01T06:11:17.481Z,21.20
2023-03-01T06:14:03.975Z,13.35
2023-03-01T06:16:50.134Z,14.60
2023-03-01T06:19:36.150Z,19.90
2023-03-01T06:22:21.901Z,16.25
2023-03-01T06:25:08.793Z,29.80
2023-03-01T06:27:54.730Z,16.17
2023-03-01T06:30:40.800Z,15.32
2023-03-01T06:33:26.392Z,14.35
2023-03-01T06:36:12.087Z,24.60
2023-03-01T06:38:57.700Z,18.15
2023-03-01T06:41:43.581Z,19.15
2023-03-01T06:44:29.591Z,14.82
2023-03-01T06:47:15.402Z,15.60
2023-03-01T06:50:02.283Z,12.80
2023-03-01T06:55:35.410Z,16.92
2023-03-01T06:58:21.310Z,21.52
2023-03-01T07:01:10.766Z,18.83
2023-03-01T07:03:56.568Z,18.25
2023-03-01T07:06:42.182Z,26.00
2023-03-01T07:09:28.192Z,25.08
2023-03-01T07:12:14.067Z,11.43
2023-03-01T07:14:59.979Z,11.93
2023-03-01T07:17:48.684Z,16.23
2023-03-01T07:20:34.615Z,15.57
2023-03-01T07:23:20.254Z,21.85
2023-03-01T07:26:06.478Z,24.20
2023-03-01T07:28:52.722Z,18.45
2023-03-01T07:31:38.642Z,21.30
2023-03-01T07:34:25.062Z,23.02
2023-03-01T07:37:23.906Z,19.67
2023-03-01T07:40:10.497Z,21.45
2023-03-01T07:42:57.748Z,16.38
2023-03-01T07:45:43.711Z,19.88
2023-03-01T07:48:30.660Z,18.52
2023-03-01T07:51:17.015Z,23.80
2023-03-01T07:54:03.990Z,19.40
2023-03-01T07:56:49.684Z,18.83
2023-03-01T07:59:36.377Z,24.60
2023-03-01T08:02:22.171Z,26.60
2023-03-01T08:05:08.354Z,31.77
2023-03-01T08:07:54.631Z,22.58
2023-03-01T08:10:40.546Z,16.00
2023-03-01T08:13:26.618Z,13.13
2023-03-01T08:16:15.267Z,20.08
2023-03-01T08:19:05.788Z,27.80
2023-03-01T08:21:52.068Z,18.20
2023-03-01T08:24:38.026Z,12.73
2023-03-01T08:27:24.589Z,18.95
2023-03-01T08:30:10.917Z,19.80
2023-03-01T08:32:57.213Z,17.40
2023-03-01T08:35:42.863Z,16.20
2023-03-01T08:38:28.737Z,17.65
2023-03-01T08:41:15.371Z,18.02
2023-03-01T08:44:02.296Z,31.05
2023-03-01T08:46:48.264Z,27.70
2023-03-01T08:49:34.300Z,36.00
2023-03-01T08:52:23.514Z,33.70
2023-03-01T08:55:10.062Z,21.05
2023-03-01T08:57:56.547Z,24.00
2023-03-01T09:00:43.482Z,54.80
2023-03-01T09:03:29.847Z,123.15
2023-03-01T09:06:16.850Z,76.45
2023-03-01T09:09:04.922Z,132.02
2023-03-01T09:11:51.872Z,375.15
2023-03-01T09:14:39.897Z,158.07
2023-03-01T09:17:25.510Z,57.80
2023-03-01T09:20:11.816Z,34.97
2023-03-01T09:22:57.998Z,29.35
2023-03-01T09:25:43.694Z,27.92
2023-03-01T09:28:30.551Z,22.33
2023-03-01T09:31:17.322Z,24.52
2023-03-01T09:34:04.719Z,30.20
2023-03-01T09:36:51.717Z,49.38
2023-03-01T09:39:37.466Z,23.05
2023-03-01T09:42:23.364Z,26.08
2023-03-01T09:45:35.725Z,22.10
2023-03-01T09:48:24.560Z,25.40
2023-03-01T09:51:20.487Z,28.90
2023-03-01T09:54:07.324Z,18.42
2023-03-01T09:57:07.000Z,18.50
2023-03-01T10:00:05.608Z,26.83
2023-03-01T10:03:12.796Z,19.67
2023-03-01T10:06:34.037Z,35.90
2023-03-01T10:09:22.458Z,27.65
2023-03-01T10:12:35.601Z,24.88
2023-03-01T10:16:12.196Z,23.27
2023-03-01T10:19:03.699Z,20.63
2023-03-01T10:21:50.971Z,17.25
2023-03-01T10:24:37.467Z,20.55
2023-03-01T10:27:29.243Z,16.70
2023-03-01T10:30:40.624Z,20.02
2023-03-01T10:33:29.309Z,16.08
2023-03-01T10:36:15.141Z,17.52
2023-03-01T10:39:12.213Z,19.63
2023-03-01T10:42:14.905Z,19.35
2023-03-01T10:45:31.428Z,19.88
2023-03-01T10:48:24.622Z,27.45
2023-03-01T10:51:18.681Z,19.60
2023-03-01T10:54:05.920Z,23.75
2023-03-01T10:57:00.648Z,21.27
2023-03-01T10:59:46.609Z,25.80
2023-03-01T11:02:35.194Z,21.33
2023-03-01T11:05:25.398Z,22.77
2023-03-01T11:08:11.349Z,24.70
2023-03-01T11:11:28.870Z,28.67
2023-03-01T11:14:27.327Z,27.95
2023-03-01T11:17:22.286Z,30.15
2023-03-01T11:20:37.853Z,36.13
2023-03-01T11:23:23.936Z,35.22
2023-03-01T11:26:12.877Z,35.53
2023-03-01T11:29:02.433Z,41.70
2023-03-01T11:31:57.279Z,30.63
2023-03-01T11:34:51.975Z,44.75
2023-03-01T11:41:00.178Z,35.00
2023-03-01T11:44:06.460Z,29.05
2023-03-01T11:47:08.723Z,36.90
2023-03-01T11:50:08.920Z,27.42
2023-03-01T11:52:55.915Z,28.98
